sensor_id;sensor_type;location;lat;lon;timestamp;P1;durP1;ratioP1;P2;durP2;ratioP2
45033;SDS011;30771;47.988;-4.186;2023-04-03T08:00:22;18.57;;;3.57;;
45033;SDS011;30771;47.988;-4.186;2023-04-03T08:02:47;9.55;;;2.60;;
45033;SDS011;30771;47.988;-4.186;2023-04-03T08:05:13;20.98;;;3.38;;
45033;SDS011;30771;47.988;-4.186;2023-04-03T08:07:38;10.75;;;2.80;;
45033;SDS011;30771;47.988;-4.186;2023-04-03T08:10:03;16.58;;;3.13;;
45033;SDS011;30771;47.988;-4.186;2023-04-03T08:12:29;12.38;;;3.22;;
45033;SDS011;30771;47.988;-4.186;2023-04-03T08:14:55;17.23;;;3.58;;
45033;SDS011;30771;47.988;-4.186;2023-04-03T08:17:20;10.52;;;3.00;;
45033;SDS011;30771;47.988;-4.186;2023-04-03T08:19:46;21.10;;;3.28;;
45033;SDS011;30771;47.988;-4.186;2023-04-03T08:22:11;17.00;;;3.20;;
45033;SDS011;30771;47.988;-4.186;2023-04-03T08:24:36;17.13;;;3.30;;
45033;SDS011;30771;47.988;-4.186;2023-04-03T08:27:01;11.25;;;3.30;;
45033;SDS011;30771;47.988;-4.186;2023-04-03T08:29:27;20.08;;;3.58;;
45033;SDS011;30771;47.988;-4.186;2023-04-03T08:31:52;21.33;;;3.72;;
45033;SDS011;30771;47.988;-4.186;2023-04-03T08:34:18;15.43;;;3.80;;
45033;SDS011;30771;47.988;-4.186;2023-04-03T08:36:44;20.63;;;2.88;;
45033;SDS011;30771;47.988;-4.186;2023-04-03T08:39:10;16.70;;;3.03;;
45033;SDS011;30771;47.988;-4.186;2023-04-03T08:41:38;10.27;;;2.95;;
45033;SDS011;30771;47.988;-4.186;2023-04-03T08:46:47;14.93;;;2.55;;
45033;SDS011;30771;47.988;-4.186;2023-04-03T08:52:10;12.65;;;2.78;;
45033;SDS011;30771;47.988;-4.186;2023-04-03T08:54:40;12.45;;;2.70;;
45033;SDS011;30771;47.988;-4.186;2023-04-03T08:57:20;14.95;;;2.92;;
45033;SDS011;30771;47.988;-4.186;2023-04-03T08:59:53;13.85;;;2.70;;
45033;SDS011;30771;47.988;-4.186;2023-04-03T09:02:23;14.20;;;3.00;;
45033;SDS011;30771;47.988;-4.186;2023-04-03T09:04:55;9.98;;;2.60;;
45033;SDS011;30771;47.988;-4.186;2023-04-03T09:07:26;11.88;;;2.47;;
45033;SDS011;30771;47.988;-4.186;2023-04-03T09:10:01;12.15;;;3.05;;
45033;SDS011;30771;47.988;-4.186;2023-04-03T09:12:27;15.70;;;2.70;;
45033;SDS011;30771;47.988;-4.186;2023-04-03T09:15:17;11.55;;;2.33;;
45033;SDS011;30771;47.988;-4.186;2023-04-03T09:23:14;13.75;;;2.75;;
45033;SDS011;30771;47.988;-4.186;2023-04-03T09:26:01;14.80;;;3.00;;
45033;SDS011;30771;47.988;-4.186;2023-04-03T09:28:32;13.45;;;2.42;;
45033;SDS011;30771;47.988;-4.186;2023-04-03T09:31:05;21.83;;;3.35;;
45033;SDS011;30771;47.988;-4.186;2023-04-03T09:36:51;13.65;;;2.75;;
45033;SDS011;30771;47.988;-4.186;2023-04-03T09:39:23;11.77;;;2.10;;
45033;SDS011;30771;47.988;-4.186;2023-04-03T09:42:11;25.83;;;2.90;;
45033;SDS011;30771;47.988;-4.186;2023-04-03T09:44:57;13.43;;;2.55;;
45033;SDS011;30771;47.988;-4.186;2023-04-03T09:47:29;12.88;;;2.30;;
45033;SDS011;30771;47.988;-4.186;2023-04-03T09:50:10;14.23;;;2.83;;
45033;SDS011;30771;47.988;-4.186;2023-04-03T09:52:49;14.20;;;3.25;;
45033;SDS011;30771;47.988;-4.186;2023-04-03T09:55:17;17.80;;;2.67;;
45033;SDS011;30771;47.988;-4.186;2023-04-03T09:57:45;11.55;;;2.80;;
45033;SDS011;30771;47.988;-4.186;2023-04-03T10:00:19;14.25;;;2.45;;
45033;SDS011;30771;47.988;-4.186;2023-04-03T10:02:54;12.73;;;2.00;;
45033;SDS011;30771;47.988;-4.186;2023-04-03T10:05:36;15.07;;;2.90;;
45033;SDS011;30771;47.988;-4.186;2023-04-03T10:10:38;14.57;;;2.80;;
45033;SDS011;30771;47.988;-4.186;2023-04-03T10:13:10;13.18;;;2.40;;
45033;SDS011;30771;47.988;-4.186;2023-04-03T10:15:44;13.30;;;2.47;;
45033;SDS011;30771;47.988;-4.186;2023-04-03T10:20:57;19.00;;;2.83;;
45033;SDS011;30771;47.988;-4.186;2023-04-03T10:23:42;14.05;;;2.78;;
45033;SDS011;30771;47.988;-4.186;2023-04-03T10:26:17;8.27;;;2.28;;
45033;SDS011;30771;47.988;-4.186;2023-04-03T10:34:44;14.75;;;2.50;;
45033;SDS011;30771;47.988;-4.186;2023-04-03T10:37:21;10.85;;;1.90;;
45033;SDS011;30771;47.988;-4.186;2023-04-03T10:40:15;11.00;;;2.00;;
45033;SDS011;30771;47.988;-4.186;2023-04-03T10:48:11;11.52;;;2.40;;
45033;SDS011;30771;47.988;-4.186;2023-04-03T10:58:44;17.15;;;3.00;;
45033;SDS011;30771;47.988;-4.186;2023-04-03T11:01:18;15.65;;;2.70;;
45033;SDS011;30771;47.988;-4.186;2023-04-03T11:03:48;12.55;;;2.40;;
45033;SDS011;30771;47.988;-4.186;2023-04-03T11:06:17;15.82;;;2.80;;
45033;SDS011;30771;47.988;-4.186;2023-04-03T11:09:00;13.57;;;3.17;;
45033;SDS011;30771;47.988;-4.186;2023-04-03T11:11:29;12.38;;;2.33;;
45033;SDS011;30771;47.988;-4.186;2023-04-03T11:14:05;10.32;;;2.33;;
45033;SDS011;30771;47.988;-4.186;2023-04-03T11:16:40;8.63;;;2.30;;
45033;SDS011;30771;47.988;-4.186;2023-04-03T11:21:47;10.75;;;2.30;;
45033;SDS011;30771;47.988;-4.186;2023-04-03T11:24:37;18.15;;;2.75;;
45033;SDS011;30771;47.988;-4.186;2023-04-03T11:27:02;11.82;;;2.50;;
45033;SDS011;30771;47.988;-4.186;2023-04-03T11:29:34;14.57;;;2.72;;
45033;SDS011;30771;47.988;-4.186;2023-04-03T11:34:41;13.48;;;2.70;;
45033;SDS011;30771;47.988;-4.186;2023-04-03T11:42:41;15.75;;;2.97;;
45033;SDS011;30771;47.988;-4.186;2023-04-03T11:47:51;10.73;;;2.63;;
45033;SDS011;30771;47.988;-4.186;2023-04-03T11:58:18;9.82;;;2.35;;
45033;SDS011;30771;47.988;-4.186;2023-04-03T12:05:47;8.80;;;2.30;;
45033;SDS011;30771;47.988;-4.186;2023-04-03T12:13:39;12.60;;;2.47;;
45033;SDS011;30771;47.988;-4.186;2023-04-03T12:16:27;10.77;;;2.70;;
45033;SDS011;30771;47.988;-4.186;2023-04-03T12:21:22;9.80;;;2.42;;
45033;SDS011;30771;47.988;-4.186;2023-04-03T12:29:27;11.63;;;2.92;;
45033;SDS011;30771;47.988;-4.186;2023-04-03T12:32:07;9.65;;;2.65;;
45033;SDS011;30771;47.988;-4.186;2023-04-03T12:40:38;10.18;;;2.40;;
45033;SDS011;30771;47.988;-4.186;2023-04-03T12:45:51;11.02;;;2.88;;
45033;SDS011;30771;47.988;-4.186;2023-04-03T12:48:28;11.57;;;2.47;;
45033;SDS011;30771;47.988;-4.186;2023-04-03T12:50:55;11.13;;;2.30;;
45033;SDS011;30771;47.988;-4.186;2023-04-03T12:53:26;11.87;;;2.40;;
45033;SDS011;30771;47.988;-4.186;2023-04-03T12:55:56;12.27;;;2.60;;
45033;SDS011;30771;47.988;-4.186;2023-04-03T12:58:42;7.82;;;2.20;;
45033;SDS011;30771;47.988;-4.186;2023-04-03T13:01:14;11.70;;;2.55;;
45033;SDS011;30771;47.988;-4.186;2023-04-03T13:03:45;10.13;;;2.30;;
45033;SDS011;30771;47.988;-4.186;2023-04-03T13:06:16;11.05;;;2.10;;
45033;SDS011;30771;47.988;-4.186;2023-04-03T13:08:54;11.60;;;2.35;;
45033;SDS011;30771;47.988;-4.186;2023-04-03T13:11:21;12.07;;;2.30;;
45033;SDS011;30771;47.988;-4.186;2023-04-03T13:13:58;12.63;;;2.75;;
45033;SDS011;30771;47.988;-4.186;2023-04-03T13:16:39;12.65;;;2.78;;
45033;SDS011;30771;47.988;-4.186;2023-04-03T13:19:05;7.50;;;2.30;;
45033;SDS011;30771;47.988;-4.186;2023-04-03T13:21:31;10.75;;;2.50;;
45033;SDS011;30771;47.988;-4.186;2023-04-03T13:23:59;14.07;;;2.67;;
45033;SDS011;30771;47.988;-4.186;2023-04-03T13:26:34;12.52;;;2.85;;
45033;SDS011;30771;47.988;-4.186;2023-04-03T13:29:04;14.98;;;2.55;;
45033;SDS011;30771;47.988;-4.186;2023-04-03T13:31:33;11.63;;;2.95;;
45033;SDS011;30771;47.988;-4.186;2023-04-03T13:36:44;13.50;;;2.53;;
45033;SDS011;30771;47.988;-4.186;2023-04-03T13:39:27;15.73;;;3.08;;
45033;SDS011;30771;47.988;-4.186;2023-04-03T13:41:56;13.85;;;2.97;;
45033;SDS011;30771;47.988;-4.186;2023-04-03T13:46:55;12.63;;;2.42;;
45033;SDS011;30771;47.988;-4.186;2023-04-03T13:51:51;12.00;;;2.72;;
45033;SDS011;30771;47.988;-4.186;2023-04-03T13:56:54;13.60;;;3.05;;
45033;SDS011;30771;47.988;-4.186;2023-04-03T13:59:27;15.57;;;3.00;;
45033;SDS011;30771;47.988;-4.186;2023-04-03T14:04:29;15.63;;;3.75;;
45033;SDS011;30771;47.988;-4.186;2023-04-03T14:06:55;12.05;;;3.35;;
45033;SDS011;30771;47.988;-4.186;2023-04-03T14:09:22;17.75;;;3.58;;
45033;SDS011;30771;47.988;-4.186;2023-04-03T14:11:50;13.70;;;3.03;;
45033;SDS011;30771;47.988;-4.186;2023-04-03T14:14:21;13.80;;;2.88;;
45033;SDS011;30771;47.988;-4.186;2023-04-03T14:16:53;11.40;;;3.38;;
45033;SDS011;30771;47.988;-4.186;2023-04-03T14:19:25;14.70;;;3.22;;
45033;SDS011;30771;47.988;-4.186;2023-04-03T14:21:53;10.00;;;2.75;;
45033;SDS011;30771;47.988;-4.186;2023-04-03T14:24:20;12.15;;;2.65;;
45033;SDS011;30771;47.988;-4.186;2023-04-03T14:26:46;10.95;;;3.08;;
45033;SDS011;30771;47.988;-4.186;2023-04-03T14:29:11;13.07;;;3.22;;
45033;SDS011;30771;47.988;-4.186;2023-04-03T14:31:38;11.65;;;3.05;;
45033;SDS011;30771;47.988;-4.186;2023-04-03T14:34:04;15.30;;;4.47;;
45033;SDS011;30771;47.988;-4.186;2023-04-03T14:36:30;16.92;;;4.10;;
45033;SDS011;30771;47.988;-4.186;2023-04-03T14:38:55;9.55;;;3.35;;
45033;SDS011;30771;47.988;-4.186;2023-04-03T14:41:22;11.90;;;3.10;;
45033;SDS011;30771;47.988;-4.186;2023-04-03T14:43:49;15.35;;;2.90;;
45033;SDS011;30771;47.988;-4.186;2023-04-03T14:48:50;9.60;;;2.55;;
45033;SDS011;30771;47.988;-4.186;2023-04-03T14:51:15;10.48;;;2.88;;
45033;SDS011;30771;47.988;-4.186;2023-04-03T14:53:41;10.27;;;2.90;;
45033;SDS011;30771;47.988;-4.186;2023-04-03T14:56:19;17.75;;;4.85;;
45033;SDS011;30771;47.988;-4.186;2023-04-03T14:58:48;11.02;;;4.07;;
45033;SDS011;30771;47.988;-4.186;2023-04-03T15:01:14;13.40;;;4.18;;
45033;SDS011;30771;47.988;-4.186;2023-04-03T15:03:39;8.43;;;2.67;;
45033;SDS011;30771;47.988;-4.186;2023-04-03T15:06:05;19.25;;;3.80;;
45033;SDS011;30771;47.988;-4.186;2023-04-03T15:08:30;10.98;;;3.17;;
45033;SDS011;30771;47.988;-4.186;2023-04-03T15:10:56;9.90;;;2.55;;
45033;SDS011;30771;47.988;-4.186;2023-04-03T15:13:22;10.73;;;2.97;;
45033;SDS011;30771;47.988;-4.186;2023-04-03T15:15:49;13.00;;;3.42;;
45033;SDS011;30771;47.988;-4.186;2023-04-03T15:18:19;11.75;;;2.90;;
45033;SDS011;30771;47.988;-4.186;2023-04-03T15:20:46;12.77;;;3.70;;
45033;SDS011;30771;47.988;-4.186;2023-04-03T15:23:12;12.88;;;3.22;;
45033;SDS011;30771;47.988;-4.186;2023-04-03T15:25:39;17.45;;;4.20;;
45033;SDS011;30771;47.988;-4.186;2023-04-03T15:28:04;12.07;;;3.45;;
45033;SDS011;30771;47.988;-4.186;2023-04-03T15:30:31;11.60;;;4.15;;
45033;SDS011;30771;47.988;-4.186;2023-04-03T15:32:56;11.55;;;3.75;;
45033;SDS011;30771;47.988;-4.186;2023-04-03T15:35:22;13.70;;;3.13;;
45033;SDS011;30771;47.988;-4.186;2023-04-03T15:37:47;11.75;;;3.72;;
45033;SDS011;30771;47.988;-4.186;2023-04-03T15:40:12;12.60;;;3.08;;
45033;SDS011;30771;47.988;-4.186;2023-04-03T15:42:38;15.30;;;4.03;;
45033;SDS011;30771;47.988;-4.186;2023-04-03T15:45:04;17.50;;;3.90;;
45033;SDS011;30771;47.988;-4.186;2023-04-03T15:47:29;13.63;;;3.70;;
45033;SDS011;30771;47.988;-4.186;2023-04-03T15:49:55;13.07;;;3.80;;
45033;SDS011;30771;47.988;-4.186;2023-04-03T15:52:20;12.50;;;3.92;;
45033;SDS011;30771;47.988;-4.186;2023-04-03T15:54:46;12.35;;;4.05;;
45033;SDS011;30771;47.988;-4.186;2023-04-03T15:57:11;13.93;;;3.90;;
45033;SDS011;30771;47.988;-4.186;2023-04-03T15:59:36;14.65;;;4.47;;
45033;SDS011;30771;47.988;-4.186;2023-04-03T16:02:02;15.93;;;3.92;;
45033;SDS011;30771;47.988;-4.186;2023-04-03T16:04:31;14.27;;;4.18;;
45033;SDS011;30771;47.988;-4.186;2023-04-03T16:06:57;14.93;;;3.70;;
45033;SDS011;30771;47.988;-4.186;2023-04-03T16:09:26;12.50;;;3.67;;
45033;SDS011;30771;47.988;-4.186;2023-04-03T16:11:51;14.95;;;4.10;;
45033;SDS011;30771;47.988;-4.186;2023-04-03T16:14:16;14.32;;;4.18;;
45033;SDS011;30771;47.988;-4.186;2023-04-03T16:16:42;15.85;;;4.25;;
45033;SDS011;30771;47.988;-4.186;2023-04-03T16:19:07;12.98;;;3.72;;
45033;SDS011;30771;47.988;-4.186;2023-04-03T16:21:34;14.80;;;3.70;;
45033;SDS011;30771;47.988;-4.186;2023-04-03T16:24:00;11.95;;;4.00;;
45033;SDS011;30771;47.988;-4.186;2023-04-03T16:26:26;11.73;;;4.10;;
45033;SDS011;30771;47.988;-4.186;2023-04-03T16:28:52;18.25;;;4.18;;
45033;SDS011;30771;47.988;-4.186;2023-04-03T16:31:17;11.45;;;3.45;;
45033;SDS011;30771;47.988;-4.186;2023-04-03T16:33:43;14.93;;;3.72;;
45033;SDS011;30771;47.988;-4.186;2023-04-03T16:36:08;11.32;;;3.60;;
45033;SDS011;30771;47.988;-4.186;2023-04-03T16:38:34;13.20;;;3.50;;
45033;SDS011;30771;47.988;-4.186;2023-04-03T16:41:00;15.20;;;3.30;;
45033;SDS011;30771;47.988;-4.186;2023-04-03T16:43:26;11.60;;;4.00;;
45033;SDS011;30771;47.988;-4.186;2023-04-03T16:45:51;12.98;;;3.42;;
45033;SDS011;30771;47.988;-4.186;2023-04-03T16:48:17;13.52;;;3.50;;
45033;SDS011;30771;47.988;-4.186;2023-04-03T16:50:45;16.15;;;3.20;;
45033;SDS011;30771;47.988;-4.186;2023-04-03T16:53:11;16.15;;;3.80;;
45033;SDS011;30771;47.988;-4.186;2023-04-03T16:55:37;12.23;;;3.33;;
45033;SDS011;30771;47.988;-4.186;2023-04-03T16:58:02;19.00;;;4.30;;
45033;SDS011;30771;47.988;-4.186;2023-04-03T17:00:30;13.85;;;3.88;;
45033;SDS011;30771;47.988;-4.186;2023-04-03T17:05:21;13.60;;;3.37;;
45033;SDS011;30771;47.988;-4.186;2023-04-03T17:07:46;13.48;;;3.67;;
45033;SDS011;30771;47.988;-4.186;2023-04-03T17:10:12;19.10;;;3.72;;
45033;SDS011;30771;47.988;-4.186;2023-04-03T17:12:38;19.95;;;4.07;;
45033;SDS011;30771;47.988;-4.186;2023-04-03T17:15:03;13.98;;;3.72;;
45033;SDS011;30771;47.988;-4.186;2023-04-03T17:17:29;13.45;;;4.10;;
45033;SDS011;30771;47.988;-4.186;2023-04-03T17:19:55;14.30;;;3.50;;
45033;SDS011;30771;47.988;-4.186;2023-04-03T17:22:21;10.50;;;3.28;;
45033;SDS011;30771;47.988;-4.186;2023-04-03T17:24:46;8.57;;;3.10;;
45033;SDS011;30771;47.988;-4.186;2023-04-03T17:27:11;12.75;;;3.15;;
45033;SDS011;30771;47.988;-4.186;2023-04-03T17:29:36;13.18;;;3.97;;
45033;SDS011;30771;47.988;-4.186;2023-04-03T17:32:02;15.73;;;3.90;;
45033;SDS011;30771;47.988;-4.186;2023-04-03T17:34:27;15.13;;;4.32;;
45033;SDS011;30771;47.988;-4.186;2023-04-03T17:36:52;11.30;;;3.60;;
45033;SDS011;30771;47.988;-4.186;2023-04-03T17:39:18;13.40;;;3.50;;
45033;SDS011;30771;47.988;-4.186;2023-04-03T17:41:43;14.38;;;3.38;;
45033;SDS011;30771;47.988;-4.186;2023-04-03T17:44:08;13.85;;;3.65;;
45033;SDS011;30771;47.988;-4.186;2023-04-03T17:46:34;14.88;;;3.58;;
45033;SDS011;30771;47.988;-4.186;2023-04-03T17:48:59;11.38;;;3.33;;
45033;SDS011;30771;47.988;-4.186;2023-04-03T17:51:25;13.60;;;4.20;;
45033;SDS011;30771;47.988;-4.186;2023-04-03T17:53:51;13.27;;;3.95;;
45033;SDS011;30771;47.988;-4.186;2023-04-03T17:56:18;10.25;;;3.40;;
45033;SDS011;30771;47.988;-4.186;2023-04-03T17:58:45;13.10;;;3.38;;
45033;SDS011;30771;47.988;-4.186;2023-04-03T18:01:12;11.63;;;4.00;;
45033;SDS011;30771;47.988;-4.186;2023-04-03T18:06:05;13.80;;;4.22;;
45033;SDS011;30771;47.988;-4.186;2023-04-03T18:08:34;17.23;;;4.13;;
45033;SDS011;30771;47.988;-4.186;2023-04-03T18:11:02;14.65;;;4.43;;
45033;SDS011;30771;47.988;-4.186;2023-04-03T18:13:28;12.25;;;4.15;;
45033;SDS011;30771;47.988;-4.186;2023-04-03T18:15:53;15.27;;;4.20;;
45033;SDS011;30771;47.988;-4.186;2023-04-03T18:18:18;13.70;;;4.80;;
45033;SDS011;30771;47.988;-4.186;2023-04-03T18:20:44;15.23;;;4.05;;
45033;SDS011;30771;47.988;-4.186;2023-04-03T18:23:09;14.85;;;4.25;;
45033;SDS011;30771;47.988;-4.186;2023-04-03T18:25:35;14.60;;;3.97;;
45033;SDS011;30771;47.988;-4.186;2023-04-03T18:28:02;11.15;;;3.78;;
45033;SDS011;30771;47.988;-4.186;2023-04-03T18:30:27;16.02;;;3.85;;
45033;SDS011;30771;47.988;-4.186;2023-04-03T18:32:53;14.75;;;4.45;;
45033;SDS011;30771;47.988;-4.186;2023-04-03T18:35:18;16.15;;;4.07;;
45033;SDS011;30771;47.988;-4.186;2023-04-03T18:37:43;11.60;;;3.63;;
45033;SDS011;30771;47.988;-4.186;2023-04-03T18:40:08;16.90;;;4.20;;
45033;SDS011;30771;47.988;-4.186;2023-04-03T18:42:34;11.55;;;4.30;;
45033;SDS011;30771;47.988;-4.186;2023-04-03T18:45:00;18.20;;;4.47;;
45033;SDS011;30771;47.988;-4.186;2023-04-03T18:47:28;14.07;;;4.00;;
45033;SDS011;30771;47.988;-4.186;2023-04-03T18:49:55;16.65;;;4.40;;
45033;SDS011;30771;47.988;-4.186;2023-04-03T18:52:21;10.88;;;4.00;;
45033;SDS011;30771;47.988;-4.186;2023-04-03T18:54:47;14.45;;;4.53;;
45033;SDS011;30771;47.988;-4.186;2023-04-03T18:57:12;15.50;;;3.83;;
45033;SDS011;30771;47.988;-4.186;2023-04-03T18:59:37;17.33;;;5.22;;
45033;SDS011;30771;47.988;-4.186;2023-04-03T19:02:03;25.33;;;5.60;;
45033;SDS011;30771;47.988;-4.186;2023-04-03T19:04:29;25.80;;;5.20;;
45033;SDS011;30771;47.988;-4.186;2023-04-03T19:06:55;27.65;;;5.38;;
45033;SDS011;30771;47.988;-4.186;2023-04-03T19:09:20;19.42;;;5.75;;
45033;SDS011;30771;47.988;-4.186;2023-04-03T19:11:46;17.00;;;5.30;;
45033;SDS011;30771;47.988;-4.186;2023-04-03T19:14:13;19.23;;;6.18;;
45033;SDS011;30771;47.988;-4.186;2023-04-03T19:16:38;16.58;;;5.05;;
45033;SDS011;30771;47.988;-4.186;2023-04-03T19:19:03;19.85;;;5.93;;
45033;SDS011;30771;47.988;-4.186;2023-04-03T19:21:29;13.55;;;5.43;;
45033;SDS011;30771;47.988;-4.186;2023-04-03T19:23:54;17.58;;;5.35;;
45033;SDS011;30771;47.988;-4.186;2023-04-03T19:26:19;17.02;;;5.68;;
45033;SDS011;30771;47.988;-4.186;2023-04-03T19:28:44;17.83;;;5.45;;
45033;SDS011;30771;47.988;-4.186;2023-04-03T19:31:11;16.00;;;4.25;;
45033;SDS011;30771;47.988;-4.186;2023-04-03T19:33:38;16.45;;;4.25;;
45033;SDS011;30771;47.988;-4.186;2023-04-03T19:36:04;23.27;;;4.47;;
45033;SDS011;30771;47.988;-4.186;2023-04-03T19:38:29;15.15;;;4.10;;
45033;SDS011;30771;47.988;-4.186;2023-04-03T19:40:54;19.73;;;4.53;;
45033;SDS011;30771;47.988;-4.186;2023-04-03T19:43:20;11.57;;;4.25;;
45033;SDS011;30771;47.988;-4.186;2023-04-03T19:45:45;16.27;;;5.22;;
45033;SDS011;30771;47.988;-4.186;2023-04-03T19:48:10;18.00;;;4.75;;
45033;SDS011;30771;47.988;-4.186;2023-04-03T19:50:36;12.70;;;4.57;;
45033;SDS011;30771;47.988;-4.186;2023-04-03T19:53:01;11.52;;;4.70;;
45033;SDS011;30771;47.988;-4.186;2023-04-03T19:55:27;19.02;;;5.60;;
45033;SDS011;30771;47.988;-4.186;2023-04-03T19:57:52;16.20;;;4.80;;
45033;SDS011;30771;47.988;-4.186;2023-04-03T20:00:18;17.70;;;4.97;;
45033;SDS011;30771;47.988;-4.186;2023-04-03T20:02:44;17.35;;;4.93;;
45033;SDS011;30771;47.988;-4.186;2023-04-03T20:05:09;11.27;;;4.65;;
45033;SDS011;30771;47.988;-4.186;2023-04-03T20:07:34;17.20;;;6.03;;
45033;SDS011;30771;47.988;-4.186;2023-04-03T20:10:00;25.13;;;8.88;;
45033;SDS011;30771;47.988;-4.186;2023-04-03T20:12:25;49.75;;;19.70;;
45033;SDS011;30771;47.988;-4.186;2023-04-03T20:14:50;76.63;;;28.42;;
45033;SDS011;30771;47.988;-4.186;2023-04-03T20:17:15;55.65;;;22.10;;
45033;SDS011;30771;47.988;-4.186;2023-04-03T20:19:41;56.40;;;22.27;;
45033;SDS011;30771;47.988;-4.186;2023-04-03T20:22:06;56.33;;;19.30;;
45033;SDS011;30771;47.988;-4.186;2023-04-03T20:24:32;29.77;;;11.63;;
45033;SDS011;30771;47.988;-4.186;2023-04-03T20:26:57;20.25;;;8.57;;
45033;SDS011;30771;47.988;-4.186;2023-04-03T20:29:25;24.90;;;9.10;;
45033;SDS011;30771;47.988;-4.186;2023-04-03T20:31:50;26.17;;;10.70;;
45033;SDS011;30771;47.988;-4.186;2023-04-03T20:34:16;29.55;;;10.32;;
45033;SDS011;30771;47.988;-4.186;2023-04-03T20:36:41;37.15;;;13.27;;
45033;SDS011;30771;47.988;-4.186;2023-04-03T20:39:06;32.35;;;9.35;;
45033;SDS011;30771;47.988;-4.186;2023-04-03T20:41:32;22.85;;;6.70;;
45033;SDS011;30771;47.988;-4.186;2023-04-03T20:43:57;21.92;;;6.68;;
45033;SDS011;30771;47.988;-4.186;2023-04-03T20:46:23;26.85;;;7.13;;
45033;SDS011;30771;47.988;-4.186;2023-04-03T20:48:48;19.80;;;6.28;;
45033;SDS011;30771;47.988;-4.186;2023-04-03T20:51:15;18.30;;;5.60;;
45033;SDS011;30771;47.988;-4.186;2023-04-03T20:53:41;15.98;;;6.28;;
45033;SDS011;30771;47.988;-4.186;2023-04-03T20:56:06;23.35;;;8.90;;
45033;SDS011;30771;47.988;-4.186;2023-04-03T20:58:32;24.75;;;11.10;;
45033;SDS011;30771;47.988;-4.186;2023-04-03T21:00:58;30.65;;;13.20;;
45033;SDS011;30771;47.988;-4.186;2023-04-03T21:03:24;29.50;;;11.80;;
45033;SDS011;30771;47.988;-4.186;2023-04-03T21:19:56;20.77;;;9.77;;
45033;SDS011;30771;47.988;-4.186;2023-04-03T21:22:21;21.10;;;8.27;;
45033;SDS011;30771;47.988;-4.186;2023-04-03T21:24:46;21.45;;;9.45;;
45033;SDS011;30771;47.988;-4.186;2023-04-03T21:27:12;24.20;;;9.25;;
45033;SDS011;30771;47.988;-4.186;2023-04-03T21:29:37;21.67;;;8.75;;
45033;SDS011;30771;47.988;-4.186;2023-04-03T21:32:02;22.90;;;9.50;;
45033;SDS011;30771;47.988;-4.186;2023-04-03T21:34:28;27.17;;;9.55;;
45033;SDS011;30771;47.988;-4.186;2023-04-03T21:36:55;23.67;;;9.20;;
45033;SDS011;30771;47.988;-4.186;2023-04-03T21:39:25;22.75;;;8.43;;
45033;SDS011;30771;47.988;-4.186;2023-04-03T21:41:50;27.75;;;9.15;;
45033;SDS011;30771;47.988;-4.186;2023-04-03T21:44:15;21.52;;;8.65;;
45033;SDS011;30771;47.988;-4.186;2023-04-03T21:46:41;31.65;;;9.43;;
45033;SDS011;30771;47.988;-4.186;2023-04-03T21:49:06;22.92;;;8.38;;
45033;SDS011;30771;47.988;-4.186;2023-04-03T21:51:31;26.42;;;8.93;;
45033;SDS011;30771;47.988;-4.186;2023-04-03T21:53:57;21.55;;;8.07;;
45033;SDS011;30771;47.988;-4.186;2023-04-03T21:56:23;24.55;;;8.48;;
45033;SDS011;30771;47.988;-4.186;2023-04-03T21:58:49;20.33;;;8.48;;
45033;SDS011;30771;47.988;-4.186;2023-04-03T22:01:15;25.10;;;8.80;;
45033;SDS011;30771;47.988;-4.186;2023-04-03T22:03:41;26.92;;;9.07;;
45033;SDS011;30771;47.988;-4.186;2023-04-03T22:06:08;29.15;;;10.90;;
45033;SDS011;30771;47.988;-4.186;2023-04-03T22:08:35;35.85;;;11.43;;
45033;SDS011;30771;47.988;-4.186;2023-04-03T22:11:11;38.38;;;13.07;;
45033;SDS011;30771;47.988;-4.186;2023-04-03T22:13:37;39.67;;;13.60;;
45033;SDS011;30771;47.988;-4.186;2023-04-03T22:16:03;42.13;;;15.43;;
45033;SDS011;30771;47.988;-4.186;2023-04-03T22:18:29;55.53;;;17.00;;
45033;SDS011;30771;47.988;-4.186;2023-04-03T22:20:54;51.08;;;19.90;;
45033;SDS011;30771;47.988;-4.186;2023-04-03T22:23:20;44.35;;;20.48;;
45033;SDS011;30771;47.988;-4.186;2023-04-03T22:28:49;44.40;;;20.65;;
45033;SDS011;30771;47.988;-4.186;2023-04-03T22:31:14;47.38;;;21.50;;
45033;SDS011;30771;47.988;-4.186;2023-04-03T22:33:40;46.60;;;22.08;;
45033;SDS011;30771;47.988;-4.186;2023-04-03T22:36:07;44.47;;;22.42;;
45033;SDS011;30771;47.988;-4.186;2023-04-03T22:38:34;51.53;;;22.27;;
45033;SDS011;30771;47.988;-4.186;2023-04-03T22:41:00;45.67;;;21.23;;
45033;SDS011;30771;47.988;-4.186;2023-04-03T22:43:27;45.42;;;22.55;;
45033;SDS011;30771;47.988;-4.186;2023-04-03T22:45:53;46.50;;;23.52;;
45033;SDS011;30771;47.988;-4.186;2023-04-03T22:48:19;43.75;;;22.83;;
45033;SDS011;30771;47.988;-4.186;2023-04-03T22:50:45;41.35;;;22.77;;
45033;SDS011;30771;47.988;-4.186;2023-04-03T22:53:10;44.40;;;23.20;;
45033;SDS011;30771;47.988;-4.186;2023-04-03T22:55:35;45.03;;;23.65;;
45033;SDS011;30771;47.988;-4.186;2023-04-03T22:58:01;51.30;;;23.48;;
